sensor_id;sensor_type;location;lat;lon;timestamp;pressure;altitude;pressure_sealevel;temperature;humidity
37860;BME280;23698;52.014;5.190;2024-01-06T00:02:25;100316.94;;;15.30;100.00
37860;BME280;23698;52.014;5.190;2024-01-06T00:05:12;100325.13;;;16.25;100.00
37860;BME280;23698;52.014;5.190;2024-01-06T00:07:59;100328.94;;;15.29;100.00
37860;BME280;23698;52.014;5.190;2024-01-06T00:10:47;100332.50;;;16.82;100.00
37860;BME280;23698;52.014;5.190;2024-01-06T00:13:34;100338.84;;;15.90;100.00
37860;BME280;23698;52.014;5.190;2024-01-06T00:16:21;100338.47;;;15.98;100.00
37860;BME280;23698;52.014;5.190;2024-01-06T00:19:11;100347.84;;;15.55;100.00
37860;BME280;23698;52.014;5.190;2024-01-06T00:21:58;100354.38;;;15.65;100.00
37860;BME280;23698;52.014;5.190;2024-01-06T00:24:46;100363.38;;;15.19;100.00
37860;BME280;23698;52.014;5.190;2024-01-06T00:27:34;100359.56;;;13.67;100.00
37860;BME280;23698;52.014;5.190;2024-01-06T00:30:21;100358.84;;;12.96;100.00
37860;BME280;23698;52.014;5.190;2024-01-06T00:33:08;100366.16;;;13.52;100.00
37860;BME280;23698;52.014;5.190;2024-01-06T00:35:54;100366.00;;;13.72;100.00
37860;BME280;23698;52.014;5.190;2024-01-06T00:38:41;100364.38;;;14.27;100.00
37860;BME280;23698;52.014;5.190;2024-01-06T00:41:28;100367.88;;;14.83;100.00
37860;BME280;23698;52.014;5.190;2024-01-06T00:44:16;100375.47;;;14.81;100.00
37860;BME280;23698;52.014;5.190;2024-01-06T00:47:02;100384.31;;;15.48;100.00
37860;BME280;23698;52.014;5.190;2024-01-06T00:49:49;100375.94;;;14.41;100.00
37860;BME280;23698;52.014;5.190;2024-01-06T00:52:36;100381.72;;;15.00;100.00
37860;BME280;23698;52.014;5.190;2024-01-06T00:55:22;100382.97;;;14.85;100.00
37860;BME280;23698;52.014;5.190;2024-01-06T00:58:10;100377.53;;;14.48;100.00
37860;BME280;23698;52.014;5.190;2024-01-06T01:00:58;100394.31;;;15.66;100.00
37860;BME280;23698;52.014;5.190;2024-01-06T01:03:44;100386.78;;;15.38;100.00
37860;BME280;23698;52.014;5.190;2024-01-06T01:06:31;100388.16;;;14.20;100.00
37860;BME280;23698;52.014;5.190;2024-01-06T01:09:18;100394.66;;;14.74;100.00
37860;BME280;23698;52.014;5.190;2024-01-06T01:12:05;100400.72;;;15.48;100.00
37860;BME280;23698;52.014;5.190;2024-01-06T01:14:54;100396.25;;;15.78;100.00
37860;BME280;23698;52.014;5.190;2024-01-06T01:17:43;100400.22;;;14.98;100.00
37860;BME280;23698;52.014;5.190;2024-01-06T01:20:30;100412.38;;;16.27;100.00
37860;BME280;23698;52.014;5.190;2024-01-06T01:23:17;100411.84;;;14.38;100.00
37860;BME280;23698;52.014;5.190;2024-01-06T01:26:03;100419.13;;;13.82;100.00
37860;BME280;23698;52.014;5.190;2024-01-06T01:28:50;100417.72;;;15.62;100.00
37860;BME280;23698;52.014;5.190;2024-01-06T01:31:36;100415.63;;;14.18;100.00
37860;BME280;23698;52.014;5.190;2024-01-06T01:34:24;100422.59;;;14.14;100.00
37860;BME280;23698;52.014;5.190;2024-01-06T01:37:11;100434.31;;;14.58;100.00
37860;BME280;23698;52.014;5.190;2024-01-06T01:39:58;100440.41;;;13.02;100.00
37860;BME280;23698;52.014;5.190;2024-01-06T01:42:44;100447.31;;;13.05;100.00
37860;BME280;23698;52.014;5.190;2024-01-06T01:45:31;100453.06;;;13.22;100.00
37860;BME280;23698;52.014;5.190;2024-01-06T01:48:18;100453.91;;;12.84;100.00
37860;BME280;23698;52.014;5.190;2024-01-06T01:51:07;100455.50;;;12.53;100.00
37860;BME280;23698;52.014;5.190;2024-01-06T01:53:56;100449.88;;;14.32;100.00
37860;BME280;23698;52.014;5.190;2024-01-06T01:56:43;100451.81;;;12.86;100.00
37860;BME280;23698;52.014;5.190;2024-01-06T01:59:30;100453.34;;;14.40;100.00
37860;BME280;23698;52.014;5.190;2024-01-06T02:02:16;100466.22;;;14.14;100.00
37860;BME280;23698;52.014;5.190;2024-01-06T02:05:04;100465.78;;;14.35;100.00
37860;BME280;23698;52.014;5.190;2024-01-06T02:07:53;100470.25;;;14.48;100.00
37860;BME280;23698;52.014;5.190;2024-01-06T02:10:40;100473.63;;;14.07;100.00
37860;BME280;23698;52.014;5.190;2024-01-06T02:13:33;100481.66;;;14.02;100.00
37860;BME280;23698;52.014;5.190;2024-01-06T02:16:20;100485.97;;;13.14;100.00
37860;BME280;23698;52.014;5.190;2024-01-06T02:19:08;100487.81;;;13.33;100.00
37860;BME280;23698;52.014;5.190;2024-01-06T02:21:58;100477.22;;;13.50;100.00
37860;BME280;23698;52.014;5.190;2024-01-06T02:24:45;100487.66;;;13.15;100.00
37860;BME280;23698;52.014;5.190;2024-01-06T02:27:31;100478.97;;;12.14;100.00
37860;BME280;23698;52.014;5.190;2024-01-06T02:30:18;100481.69;;;11.87;100.00
37860;BME280;23698;52.014;5.190;2024-01-06T02:33:04;100487.53;;;12.96;100.00
37860;BME280;23698;52.014;5.190;2024-01-06T02:35:51;100506.97;;;12.28;100.00
37860;BME280;23698;52.014;5.190;2024-01-06T02:38:39;100501.81;;;12.92;100.00
37860;BME280;23698;52.014;5.190;2024-01-06T02:41:26;100506.75;;;13.01;100.00
37860;BME280;23698;52.014;5.190;2024-01-06T02:44:12;100502.41;;;12.28;100.00
37860;BME280;23698;52.014;5.190;2024-01-06T02:46:59;100524.16;;;13.00;100.00
37860;BME280;23698;52.014;5.190;2024-01-06T02:49:46;100518.31;;;12.25;100.00
37860;BME280;23698;52.014;5.190;2024-01-06T02:52:33;100518.78;;;12.74;100.00
37860;BME280;23698;52.014;5.190;2024-01-06T02:55:20;100512.00;;;12.44;100.00
37860;BME280;23698;52.014;5.190;2024-01-06T02:58:07;100527.88;;;12.41;100.00
37860;BME280;23698;52.014;5.190;2024-01-06T03:00:53;100541.50;;;12.07;100.00
37860;BME280;23698;52.014;5.190;2024-01-06T03:03:40;100545.22;;;12.40;100.00
37860;BME280;23698;52.014;5.190;2024-01-06T03:06:27;100534.59;;;12.18;100.00
37860;BME280;23698;52.014;5.190;2024-01-06T03:09:13;100539.41;;;12.03;100.00
37860;BME280;23698;52.014;5.190;2024-01-06T03:12:03;100535.97;;;12.74;100.00
37860;BME280;23698;52.014;5.190;2024-01-06T03:14:51;100540.22;;;13.09;100.00
37860;BME280;23698;52.014;5.190;2024-01-06T03:17:38;100538.94;;;12.53;100.00
37860;BME280;23698;52.014;5.190;2024-01-06T03:20:24;100541.41;;;11.54;100.00
37860;BME280;23698;52.014;5.190;2024-01-06T03:23:11;100548.59;;;12.22;100.00
37860;BME280;23698;52.014;5.190;2024-01-06T03:25:57;100561.56;;;12.20;100.00
37860;BME280;23698;52.014;5.190;2024-01-06T03:28:45;100565.31;;;13.17;100.00
37860;BME280;23698;52.014;5.190;2024-01-06T03:31:32;100559.91;;;13.11;100.00
37860;BME280;23698;52.014;5.190;2024-01-06T03:34:18;100562.19;;;12.15;100.00
37860;BME280;23698;52.014;5.190;2024-01-06T03:37:05;100567.91;;;12.99;100.00
37860;BME280;23698;52.014;5.190;2024-01-06T03:39:51;100580.69;;;12.92;100.00
37860;BME280;23698;52.014;5.190;2024-01-06T03:42:38;100577.06;;;13.18;100.00
37860;BME280;23698;52.014;5.190;2024-01-06T03:45:26;100582.22;;;12.54;100.00
37860;BME280;23698;52.014;5.190;2024-01-06T03:48:13;100591.72;;;11.57;100.00
37860;BME280;23698;52.014;5.190;2024-01-06T03:51:00;100596.84;;;11.86;100.00
37860;BME280;23698;52.014;5.190;2024-01-06T03:53:47;100595.63;;;12.56;100.00
37860;BME280;23698;52.014;5.190;2024-01-06T03:56:34;100590.50;;;12.93;100.00
37860;BME280;23698;52.014;5.190;2024-01-06T03:59:20;100601.63;;;11.78;100.00
37860;BME280;23698;52.014;5.190;2024-01-06T04:02:08;100607.94;;;12.72;100.00
37860;BME280;23698;52.014;5.190;2024-01-06T04:04:55;100614.44;;;13.49;100.00
37860;BME280;23698;52.014;5.190;2024-01-06T04:07:41;100606.75;;;13.71;100.00
37860;BME280;23698;52.014;5.190;2024-01-06T04:10:28;100614.88;;;12.07;100.00
37860;BME280;23698;52.014;5.190;2024-01-06T04:13:15;100621.03;;;13.08;100.00
37860;BME280;23698;52.014;5.190;2024-01-06T04:16:02;100621.94;;;13.54;100.00
37860;BME280;23698;52.014;5.190;2024-01-06T04:18:50;100617.00;;;13.76;100.00
37860;BME280;23698;52.014;5.190;2024-01-06T04:21:36;100623.88;;;13.40;100.00
37860;BME280;23698;52.014;5.190;2024-01-06T04:24:23;100623.28;;;13.38;100.00
37860;BME280;23698;52.014;5.190;2024-01-06T04:27:09;100624.72;;;12.28;100.00
37860;BME280;23698;52.014;5.190;2024-01-06T04:29:56;100630.34;;;12.27;100.00
37860;BME280;23698;52.014;5.190;2024-01-06T04:32:43;100629.59;;;13.12;100.00
37860;BME280;23698;52.014;5.190;2024-01-06T04:35:31;100631.97;;;12.95;100.00
37860;BME280;23698;52.014;5.190;2024-01-06T04:38:18;100630.09;;;12.08;100.00
37860;BME280;23698;52.014;5.190;2024-01-06T04:41:04;100635.31;;;12.03;100.00
37860;BME280;23698;52.014;5.190;2024-01-06T04:43:51;100632.13;;;13.72;100.00
37860;BME280;23698;52.014;5.190;2024-01-06T04:46:37;100638.28;;;13.92;100.00
37860;BME280;23698;52.014;5.190;2024-01-06T04:49:24;100650.94;;;13.80;100.00
37860;BME280;23698;52.014;5.190;2024-01-06T04:52:12;100647.03;;;14.01;100.00
37860;BME280;23698;52.014;5.190;2024-01-06T04:54:58;100640.38;;;14.22;100.00
37860;BME280;23698;52.014;5.190;2024-01-06T04:57:45;100657.81;;;14.21;100.00
37860;BME280;23698;52.014;5.190;2024-01-06T05:00:31;100655.84;;;12.59;100.00
37860;BME280;23698;52.014;5.190;2024-01-06T05:03:21;100657.94;;;12.71;100.00
37860;BME280;23698;52.014;5.190;2024-01-06T05:06:07;100661.75;;;14.82;100.00
37860;BME280;23698;52.014;5.190;2024-01-06T05:08:56;100671.91;;;14.75;100.00
37860;BME280;23698;52.014;5.190;2024-01-06T05:11:43;100670.28;;;12.20;100.00
37860;BME280;23698;52.014;5.190;2024-01-06T05:14:30;100681.72;;;13.42;100.00
37860;BME280;23698;52.014;5.190;2024-01-06T05:17:17;100678.81;;;13.10;100.00
37860;BME280;23698;52.014;5.190;2024-01-06T05:20:04;100686.16;;;13.03;100.00
37860;BME280;23698;52.014;5.190;2024-01-06T05:22:51;100692.03;;;12.87;100.00
37860;BME280;23698;52.014;5.190;2024-01-06T05:25:39;100694.44;;;13.48;100.00
37860;BME280;23698;52.014;5.190;2024-01-06T05:28:26;100689.38;;;14.04;100.00
37860;BME280;23698;52.014;5.190;2024-01-06T05:31:12;100693.13;;;13.64;100.00
37860;BME280;23698;52.014;5.190;2024-01-06T05:33:59;100687.88;;;14.40;100.00
37860;BME280;23698;52.014;5.190;2024-01-06T05:36:46;100698.97;;;12.69;100.00
37860;BME280;23698;52.014;5.190;2024-01-06T05:39:32;100702.84;;;13.40;100.00
37860;BME280;23698;52.014;5.190;2024-01-06T05:42:20;100705.59;;;13.85;100.00
37860;BME280;23698;52.014;5.190;2024-01-06T05:45:10;100712.53;;;12.82;100.00
37860;BME280;23698;52.014;5.190;2024-01-06T05:47:57;100711.72;;;12.55;100.00
37860;BME280;23698;52.014;5.190;2024-01-06T05:50:44;100703.97;;;12.65;100.00
37860;BME280;23698;52.014;5.190;2024-01-06T05:53:31;100704.22;;;11.89;100.00
37860;BME280;23698;52.014;5.190;2024-01-06T05:56:24;100706.84;;;12.24;100.00
37860;BME280;23698;52.014;5.190;2024-01-06T05:59:12;100720.91;;;12.88;100.00
37860;BME280;23698;52.014;5.190;2024-01-06T06:01:59;100716.88;;;12.17;100.00
37860;BME280;23698;52.014;5.190;2024-01-06T06:04:46;100723.56;;;13.28;100.00
37860;BME280;23698;52.014;5.190;2024-01-06T06:07:33;100717.75;;;12.37;100.00
37860;BME280;23698;52.014;5.190;2024-01-06T06:10:24;100724.88;;;12.45;100.00
37860;BME280;23698;52.014;5.190;2024-01-06T06:13:15;100733.03;;;11.42;100.00
37860;BME280;23698;52.014;5.190;2024-01-06T06:16:04;100735.09;;;12.30;100.00
37860;BME280;23698;52.014;5.190;2024-01-06T06:18:50;100739.09;;;12.74;100.00
37860;BME280;23698;52.014;5.190;2024-01-06T06:21:37;100744.13;;;12.57;100.00
37860;BME280;23698;52.014;5.190;2024-01-06T06:24:23;100748.94;;;12.61;100.00
37860;BME280;23698;52.014;5.190;2024-01-06T06:27:10;100748.47;;;12.31;100.00
37860;BME280;23698;52.014;5.190;2024-01-06T06:29:56;100760.09;;;12.05;100.00
37860;BME280;23698;52.014;5.190;2024-01-06T06:32:44;100768.38;;;12.65;100.00
37860;BME280;23698;52.014;5.190;2024-01-06T06:35:31;100776.56;;;11.62;100.00
37860;BME280;23698;52.014;5.190;2024-01-06T06:38:18;100771.44;;;11.10;100.00
37860;BME280;23698;52.014;5.190;2024-01-06T06:41:06;100778.41;;;12.44;100.00
37860;BME280;23698;52.014;5.190;2024-01-06T06:43:53;100783.06;;;11.96;100.00
37860;BME280;23698;52.014;5.190;2024-01-06T06:46:39;100788.28;;;11.97;100.00
37860;BME280;23698;52.014;5.190;2024-01-06T06:49:27;100803.81;;;11.12;100.00
37860;BME280;23698;52.014;5.190;2024-01-06T06:52:14;100800.44;;;12.76;100.00
37860;BME280;23698;52.014;5.190;2024-01-06T06:55:01;100808.88;;;12.26;100.00
37860;BME280;23698;52.014;5.190;2024-01-06T06:57:48;100819.00;;;13.86;100.00
37860;BME280;23698;52.014;5.190;2024-01-06T07:00:34;100819.91;;;13.47;100.00
37860;BME280;23698;52.014;5.190;2024-01-06T07:03:22;100823.75;;;14.11;100.00
37860;BME280;23698;52.014;5.190;2024-01-06T07:06:12;100827.47;;;13.31;100.00
37860;BME280;23698;52.014;5.190;2024-01-06T07:09:00;100838.47;;;12.01;100.00
37860;BME280;23698;52.014;5.190;2024-01-06T07:11:46;100844.63;;;12.23;100.00
37860;BME280;23698;52.014;5.190;2024-01-06T07:14:33;100848.16;;;12.85;100.00
37860;BME280;23698;52.014;5.190;2024-01-06T07:17:19;100846.75;;;12.35;100.00
37860;BME280;23698;52.014;5.190;2024-01-06T07:20:07;100854.31;;;11.34;100.00
37860;BME280;23698;52.014;5.190;2024-01-06T07:22:55;100861.06;;;12.08;100.00
37860;BME280;23698;52.014;5.190;2024-01-06T07:25:41;100866.97;;;12.19;100.00
37860;BME280;23698;52.014;5.190;2024-01-06T07:28:29;100863.00;;;12.15;100.00
37860;BME280;23698;52.014;5.190;2024-01-06T07:31:15;100873.16;;;11.43;100.00
37860;BME280;23698;52.014;5.190;2024-01-06T07:34:02;100873.50;;;12.31;100.00
37860;BME280;23698;52.014;5.190;2024-01-06T07:36:49;100880.81;;;11.11;100.00
37860;BME280;23698;52.014;5.190;2024-01-06T07:39:37;100882.28;;;10.92;100.00
37860;BME280;23698;52.014;5.190;2024-01-06T07:42:23;100888.41;;;11.72;100.00
37860;BME280;23698;52.014;5.190;2024-01-06T07:45:10;100882.09;;;11.93;100.00
37860;BME280;23698;52.014;5.190;2024-01-06T07:47:59;100892.94;;;12.21;100.00
37860;BME280;23698;52.014;5.190;2024-01-06T07:50:46;100898.72;;;12.12;100.00
37860;BME280;23698;52.014;5.190;2024-01-06T07:53:33;100914.44;;;12.23;100.00
37860;BME280;23698;52.014;5.190;2024-01-06T07:56:21;100914.00;;;12.19;100.00
37860;BME280;23698;52.014;5.190;2024-01-06T07:59:07;100920.69;;;12.65;100.00
37860;BME280;23698;52.014;5.190;2024-01-06T08:01:53;100922.69;;;12.01;100.00
37860;BME280;23698;52.014;5.190;2024-01-06T08:04:40;100923.97;;;12.05;100.00
37860;BME280;23698;52.014;5.190;2024-01-06T08:07:27;100921.34;;;11.62;100.00
37860;BME280;23698;52.014;5.190;2024-01-06T08:10:13;100923.50;;;11.95;100.00
37860;BME280;23698;52.014;5.190;2024-01-06T08:13:01;100933.66;;;12.15;100.00
37860;BME280;23698;52.014;5.190;2024-01-06T08:15:48;100933.06;;;11.91;100.00
37860;BME280;23698;52.014;5.190;2024-01-06T08:18:36;100942.19;;;11.55;100.00
37860;BME280;23698;52.014;5.190;2024-01-06T08:21:22;100952.44;;;11.88;100.00
37860;BME280;23698;52.014;5.190;2024-01-06T08:24:09;100947.25;;;12.63;100.00
37860;BME280;23698;52.014;5.190;2024-01-06T08:26:55;100950.34;;;12.46;100.00
37860;BME280;23698;52.014;5.190;2024-01-06T08:29:44;100949.38;;;12.68;100.00
37860;BME280;23698;52.014;5.190;2024-01-06T08:32:30;100964.19;;;11.67;100.00
37860;BME280;23698;52.014;5.190;2024-01-06T08:35:17;100972.63;;;12.00;100.00
37860;BME280;23698;52.014;5.190;2024-01-06T08:38:04;100961.41;;;12.45;100.00
37860;BME280;23698;52.014;5.190;2024-01-06T08:40:51;100967.97;;;13.12;100.00
37860;BME280;23698;52.014;5.190;2024-01-06T08:43:39;100978.28;;;12.69;100.00
37860;BME280;23698;52.014;5.190;2024-01-06T08:46:27;100981.91;;;11.63;100.00
37860;BME280;23698;52.014;5.190;2024-01-06T08:49:13;100988.56;;;11.82;100.00
37860;BME280;23698;52.014;5.190;2024-01-06T08:52:00;100980.19;;;12.05;100.00
37860;BME280;23698;52.014;5.190;2024-01-06T08:54:46;100989.38;;;12.39;100.00
37860;BME280;23698;52.014;5.190;2024-01-06T08:57:35;100994.88;;;14.09;100.00
37860;BME280;23698;52.014;5.190;2024-01-06T09:00:22;101004.13;;;12.99;100.00
37860;BME280;23698;52.014;5.190;2024-01-06T09:03:10;101010.53;;;13.33;100.00
37860;BME280;23698;52.014;5.190;2024-01-06T09:05:58;101015.69;;;12.66;100.00
37860;BME280;23698;52.014;5.190;2024-01-06T09:08:45;101019.50;;;12.09;100.00
37860;BME280;23698;52.014;5.190;2024-01-06T09:11:31;101024.34;;;14.65;100.00
37860;BME280;23698;52.014;5.190;2024-01-06T09:14:18;101025.94;;;12.64;100.00
37860;BME280;23698;52.014;5.190;2024-01-06T09:17:05;101027.84;;;13.19;100.00
37860;BME280;23698;52.014;5.190;2024-01-06T09:19:53;101031.28;;;14.41;100.00
37860;BME280;23698;52.014;5.190;2024-01-06T09:22:39;101040.88;;;14.90;100.00
37860;BME280;23698;52.014;5.190;2024-01-06T09:25:26;101045.53;;;14.50;100.00
37860;BME280;23698;52.014;5.190;2024-01-06T09:28:13;101051.47;;;14.33;100.00
37860;BME280;23698;52.014;5.190;2024-01-06T09:31:00;101047.47;;;13.96;100.00
37860;BME280;23698;52.014;5.190;2024-01-06T09:33:47;101058.16;;;15.16;100.00
37860;BME280;23698;52.014;5.190;2024-01-06T09:36:36;101059.41;;;13.62;100.00
37860;BME280;23698;52.014;5.190;2024-01-06T09:39:23;101059.16;;;13.43;100.00
37860;BME280;23698;52.014;5.190;2024-01-06T09:42:10;101061.91;;;14.77;100.00
37860;BME280;23698;52.014;5.190;2024-01-06T09:44:57;101072.63;;;13.85;100.00
37860;BME280;23698;52.014;5.190;2024-01-06T09:47:46;101068.88;;;13.86;100.00
37860;BME280;23698;52.014;5.190;2024-01-06T09:50:34;101076.22;;;14.19;100.00
37860;BME280;23698;52.014;5.190;2024-01-06T09:53:23;101081.06;;;14.03;100.00
37860;BME280;23698;52.014;5.190;2024-01-06T09:56:15;101090.22;;;14.82;100.00
37860;BME280;23698;52.014;5.190;2024-01-06T09:59:01;101084.59;;;13.90;100.00
37860;BME280;23698;52.014;5.190;2024-01-06T10:01:50;101087.94;;;14.66;100.00
37860;BME280;23698;52.014;5.190;2024-01-06T10:04:38;101095.38;;;13.44;100.00
37860;BME280;23698;52.014;5.190;2024-01-06T10:07:26;101093.81;;;14.03;100.00
37860;BME280;23698;52.014;5.190;2024-01-06T10:10:14;101102.13;;;13.54;100.00
37860;BME280;23698;52.014;5.190;2024-01-06T10:13:01;101100.69;;;13.17;100.00
37860;BME280;23698;52.014;5.190;2024-01-06T10:15:48;101118.09;;;13.22;100.00
37860;BME280;23698;52.014;5.190;2024-01-06T10:18:36;101106.84;;;14.07;100.00
37860;BME280;23698;52.014;5.190;2024-01-06T10:21:22;101126.34;;;12.09;100.00
37860;BME280;23698;52.014;5.190;2024-01-06T10:24:11;101118.44;;;13.48;100.00
37860;BME280;23698;52.014;5.190;2024-01-06T10:27:00;101123.66;;;13.01;100.00
37860;BME280;23698;52.014;5.190;2024-01-06T10:29:47;101123.03;;;13.40;100.00
37860;BME280;23698;52.014;5.190;2024-01-06T10:32:34;101123.19;;;14.61;100.00
37860;BME280;23698;52.014;5.190;2024-01-06T10:35:21;101132.09;;;13.13;100.00
37860;BME280;23698;52.014;5.190;2024-01-06T10:38:08;101128.81;;;13.92;100.00
37860;BME280;23698;52.014;5.190;2024-01-06T10:40:57;101131.81;;;13.36;100.00
37860;BME280;23698;52.014;5.190;2024-01-06T10:43:46;101129.63;;;13.73;100.00
37860;BME280;23698;52.014;5.190;2024-01-06T10:46:34;101137.47;;;14.29;100.00
37860;BME280;23698;52.014;5.190;2024-01-06T10:49:22;101131.59;;;13.37;100.00
37860;BME280;23698;52.014;5.190;2024-01-06T10:52:10;101138.59;;;13.18;100.00
37860;BME280;23698;52.014;5.190;2024-01-06T10:54:58;101135.81;;;12.70;100.00
37860;BME280;23698;52.014;5.190;2024-01-06T10:57:45;101139.59;;;13.04;100.00
37860;BME280;23698;52.014;5.190;2024-01-06T11:00:34;101149.69;;;12.25;100.00
37860;BME280;23698;52.014;5.190;2024-01-06T11:03:21;101157.31;;;12.93;100.00
37860;BME280;23698;52.014;5.190;2024-01-06T11:06:09;101152.75;;;12.44;100.00
37860;BME280;23698;52.014;5.190;2024-01-06T11:09:01;101156.47;;;12.64;100.00
37860;BME280;23698;52.014;5.190;2024-01-06T11:11:51;101155.06;;;14.87;100.00
37860;BME280;23698;52.014;5.190;2024-01-06T11:14:39;101162.31;;;15.33;100.00
37860;BME280;23698;52.014;5.190;2024-01-06T11:17:50;101164.94;;;14.88;100.00
37860;BME280;23698;52.014;5.190;2024-01-06T11:21:14;101157.81;;;14.53;100.00
37860;BME280;23698;52.014;5.190;2024-01-06T11:24:20;101164.38;;;13.64;100.00
37860;BME280;23698;52.014;5.190;2024-01-06T11:27:07;101170.19;;;14.43;100.00
37860;BME280;23698;52.014;5.190;2024-01-06T11:29:54;101176.00;;;16.17;100.00
37860;BME280;23698;52.014;5.190;2024-01-06T11:32:42;101164.28;;;16.35;99.23
37860;BME280;23698;52.014;5.190;2024-01-06T11:35:34;101168.59;;;16.49;100.00
37860;BME280;23698;52.014;5.190;2024-01-06T11:38:20;101163.78;;;16.19;100.00
37860;BME280;23698;52.014;5.190;2024-01-06T11:41:08;101170.78;;;16.09;100.00
37860;BME280;23698;52.014;5.190;2024-01-06T11:43:57;101177.34;;;16.33;100.00
37860;BME280;23698;52.014;5.190;2024-01-06T11:46:45;101172.34;;;15.98;99.81
37860;BME280;23698;52.014;5.190;2024-01-06T11:49:32;101170.00;;;14.78;100.00
37860;BME280;23698;52.014;5.190;2024-01-06T11:52:20;101173.31;;;13.45;100.00
37860;BME280;23698;52.014;5.190;2024-01-06T11:55:08;101175.81;;;14.08;100.00
37860;BME280;23698;52.014;5.190;2024-01-06T11:57:55;101174.78;;;14.09;100.00
37860;BME280;23698;52.014;5.190;2024-01-06T12:00:43;101176.19;;;15.90;100.00
37860;BME280;23698;52.014;5.190;2024-01-06T12:03:34;101181.31;;;14.88;100.00
37860;BME280;23698;52.014;5.190;2024-01-06T12:06:21;101171.78;;;13.90;100.00
37860;BME280;23698;52.014;5.190;2024-01-06T12:09:10;101181.69;;;14.05;100.00
37860;BME280;23698;52.014;5.190;2024-01-06T12:12:03;101174.78;;;14.96;100.00
37860;BME280;23698;52.014;5.190;2024-01-06T12:14:51;101174.38;;;12.80;100.00
37860;BME280;23698;52.014;5.190;2024-01-06T12:17:39;101180.44;;;12.04;100.00
37860;BME280;23698;52.014;5.190;2024-01-06T12:20:27;101173.81;;;13.62;100.00
37860;BME280;23698;52.014;5.190;2024-01-06T12:23:23;101182.75;;;13.07;100.00
37860;BME280;23698;52.014;5.190;2024-01-06T12:26:11;101185.31;;;12.59;100.00
37860;BME280;23698;52.014;5.190;2024-01-06T12:28:58;101184.69;;;13.55;100.00
37860;BME280;23698;52.014;5.190;2024-01-06T12:31:44;101181.75;;;13.56;100.00
37860;BME280;23698;52.014;5.190;2024-01-06T12:34:31;101182.59;;;13.22;100.00
37860;BME280;23698;52.014;5.190;2024-01-06T12:37:18;101183.84;;;13.19;100.00
37860;BME280;23698;52.014;5.190;2024-01-06T12:40:08;101190.69;;;13.44;100.00
37860;BME280;23698;52.014;5.190;2024-01-06T12:42:57;101191.94;;;13.96;100.00
37860;BME280;23698;52.014;5.190;2024-01-06T12:45:45;101200.88;;;13.00;100.00
37860;BME280;23698;52.014;5.190;2024-01-06T12:48:32;101199.09;;;14.17;100.00
37860;BME280;23698;52.014;5.190;2024-01-06T12:51:19;101198.38;;;12.98;100.00
37860;BME280;23698;52.014;5.190;2024-01-06T12:54:08;101201.66;;;13.57;100.00
37860;BME280;23698;52.014;5.190;2024-01-06T12:56:54;101197.94;;;13.30;100.00
37860;BME280;23698;52.014;5.190;2024-01-06T12:59:43;101198.28;;;12.14;100.00
37860;BME280;23698;52.014;5.190;2024-01-06T13:02:29;101193.16;;;12.75;100.00
37860;BME280;23698;52.014;5.190;2024-01-06T13:05:16;101197.28;;;13.21;100.00
37860;BME280;23698;52.014;5.190;2024-01-06T13:08:04;101204.19;;;14.87;100.00
37860;BME280;23698;52.014;5.190;2024-01-06T13:10:51;101212.97;;;12.62;100.00
37860;BME280;23698;52.014;5.190;2024-01-06T13:13:38;101211.56;;;13.01;100.00
37860;BME280;23698;52.014;5.190;2024-01-06T13:16:26;101209.84;;;12.94;100.00
37860;BME280;23698;52.014;5.190;2024-01-06T13:19:13;101204.19;;;14.33;100.00
37860;BME280;23698;52.014;5.190;2024-01-06T13:22:00;101211.72;;;12.00;100.00
37860;BME280;23698;52.014;5.190;2024-01-06T13:24:47;101213.03;;;13.74;100.00
37860;BME280;23698;52.014;5.190;2024-01-06T13:27:38;101210.09;;;13.69;100.00
37860;BME280;23698;52.014;5.190;2024-01-06T13:30:26;101213.41;;;14.39;100.00
37860;BME280;23698;52.014;5.190;2024-01-06T13:33:14;101215.97;;;14.67;100.00
37860;BME280;23698;52.014;5.190;2024-01-06T13:36:01;101219.72;;;14.53;100.00
37860;BME280;23698;52.014;5.190;2024-01-06T13:38:49;101225.81;;;14.55;100.00
37860;BME280;23698;52.014;5.190;2024-01-06T13:41:36;101226.88;;;14.61;100.00
37860;BME280;23698;52.014;5.190;2024-01-06T13:44:23;101226.81;;;14.21;100.00
37860;BME280;23698;52.014;5.190;2024-01-06T13:47:10;101229.41;;;14.69;100.00
37860;BME280;23698;52.014;5.190;2024-01-06T13:49:59;101232.88;;;13.26;100.00
37860;BME280;23698;52.014;5.190;2024-01-06T13:52:46;101234.31;;;12.01;100.00
37860;BME280;23698;52.014;5.190;2024-01-06T13:55:33;101236.69;;;13.67;100.00
37860;BME280;23698;52.014;5.190;2024-01-06T13:58:20;101241.75;;;15.25;100.00
37860;BME280;23698;52.014;5.190;2024-01-06T14:01:07;101253.13;;;15.94;100.00
37860;BME280;23698;52.014;5.190;2024-01-06T14:03:57;101255.00;;;13.86;100.00
37860;BME280;23698;52.014;5.190;2024-01-06T14:06:46;101251.03;;;13.89;100.00
37860;BME280;23698;52.014;5.190;2024-01-06T14:09:39;101248.25;;;14.44;100.00
37860;BME280;23698;52.014;5.190;2024-01-06T14:12:26;101260.06;;;14.78;100.00
37860;BME280;23698;52.014;5.190;2024-01-06T14:15:16;101250.47;;;13.23;100.00
37860;BME280;23698;52.014;5.190;2024-01-06T14:18:04;101260.28;;;14.89;100.00
37860;BME280;23698;52.014;5.190;2024-01-06T14:20:51;101264.59;;;15.57;100.00
37860;BME280;23698;52.014;5.190;2024-01-06T14:23:43;101261.91;;;13.75;100.00
37860;BME280;23698;52.014;5.190;2024-01-06T14:26:29;101276.88;;;14.06;100.00